createdAt,value
2016-03-08T00:00:36.484Z,0
2016-03-08T00:01:36.440Z,0
2016-03-08T00:02:36.411Z,0
2016-03-08T00:03:36.384Z,0
2016-03-08T00:04:36.355Z,0
2016-03-08T00:05:36.326Z,0
2016-03-08T00:06:36.126Z,0
2016-03-08T00:07:36.253Z,0
2016-03-08T00:08:36.225Z,0
2016-03-08T00:09:36.196Z,0
2016-03-08T00:10:36.168Z,0
2016-03-08T00:11:36.124Z,0
2016-03-08T00:12:36.095Z,0
2016-03-08T00:13:36.066Z,0
2016-03-08T00:14:36.038Z,0
2016-03-08T00:15:36.009Z,0
2016-03-08T00:16:35.981Z,0
2016-03-08T00:17:35.937Z,0
2016-03-08T00:18:35.907Z,0
2016-03-08T00:19:35.879Z,0
2016-03-08T00:20:35.851Z,0
2016-03-08T00:21:35.823Z,0
2016-03-08T00:22:35.794Z,0
2016-03-08T00:23:35.749Z,0
2016-03-08T00:24:35.720Z,0
2016-03-08T00:25:35.693Z,0
2016-03-08T00:26:35.664Z,0
2016-03-08T00:27:35.650Z,0
2016-03-08T00:28:35.607Z,0
2016-03-08T00:29:35.562Z,0
2016-03-08T00:30:35.534Z,0
2016-03-08T00:31:35.506Z,0
2016-03-08T00:32:35.477Z,0
2016-03-08T00:33:35.480Z,0
2016-03-08T00:34:35.404Z,0
2016-03-08T00:35:35.219Z,0
2016-03-08T00:36:35.347Z,0
2016-03-08T00:37:35.334Z,0
2016-03-08T00:38:35.275Z,0
2016-03-08T00:39:35.261Z,0
2016-03-08T00:40:35.217Z,0
2016-03-08T00:41:35.313Z,0
2016-03-08T00:42:35.160Z,0
2016-03-08T00:43:35.132Z,0
2016-03-08T00:44:35.087Z,0
2016-03-08T00:45:35.058Z,0
2016-03-08T00:46:35.029Z,0
2016-03-08T00:47:35.018Z,0
2016-03-08T00:48:34.973Z,0
2016-03-08T00:49:34.960Z,0
2016-03-08T00:50:34.901Z,0
2016-03-08T00:51:34.887Z,0
2016-03-08T00:52:34.859Z,0
2016-03-08T00:53:34.815Z,0
2016-03-08T00:54:34.786Z,0
2016-03-08T00:55:34.742Z,0
2016-03-08T00:56:34.713Z,0
2016-03-08T00:57:34.715Z,0
2016-03-08T00:58:34.657Z,0
2016-03-08T00:59:34.643Z,0
2016-03-08T01:00:34.599Z,0
2016-03-08T01:01:34.570Z,0
2016-03-08T01:02:34.558Z,0
2016-03-08T01:03:34.545Z,0
2016-03-08T01:04:34.469Z,0
2016-03-08T01:05:34.441Z,0
2016-03-08T01:06:34.409Z,0
2016-03-08T01:07:34.381Z,0
2016-03-08T01:08:34.352Z,0
2016-03-08T01:09:34.324Z,0
2016-03-08T01:10:34.273Z,0
2016-03-08T01:11:34.231Z,0
2016-03-08T01:12:34.191Z,0
2016-03-08T01:13:34.150Z,0
2016-03-08T01:14:34.093Z,0
2016-03-08T01:15:34.057Z,0
2016-03-08T01:16:34.025Z,0
2016-03-08T01:17:33.992Z,0
2016-03-08T01:18:33.943Z,0
2016-03-08T01:19:33.926Z,0
2016-03-08T01:20:33.926Z,0
2016-03-08T01:21:33.912Z,0
2016-03-08T01:22:33.819Z,0
2016-03-08T01:23:33.789Z,0
2016-03-08T01:24:34.024Z,0
2016-03-08T01:25:33.745Z,0
2016-03-08T01:26:33.699Z,0
2016-03-08T01:27:33.656Z,0
2016-03-08T01:28:33.641Z,0
2016-03-08T01:29:33.596Z,0
2016-03-08T01:30:33.567Z,0
2016-03-08T01:31:33.539Z,0
2016-03-08T01:32:33.494Z,0
2016-03-08T01:33:33.480Z,0
2016-03-08T01:34:33.436Z,0
2016-03-08T01:35:33.407Z,0
2016-03-08T01:36:33.378Z,0
2016-03-08T01:37:33.350Z,0
2016-03-08T01:38:33.321Z,0
2016-03-08T01:39:33.276Z,0
2016-03-08T01:40:33.249Z,0
2016-03-08T01:41:33.267Z,0
2016-03-08T01:42:33.176Z,0
2016-03-08T01:43:33.147Z,0
2016-03-08T01:44:33.118Z,0
2016-03-08T01:45:33.106Z,0
2016-03-08T01:46:33.062Z,0
2016-03-08T01:47:33.033Z,0
2016-03-08T01:48:33.004Z,0
2016-03-08T01:49:32.960Z,0
2016-03-08T01:50:32.948Z,0
2016-03-08T01:51:32.903Z,0
2016-03-08T01:52:32.889Z,0
2016-03-08T01:53:32.908Z,0
2016-03-08T01:54:32.927Z,0
2016-03-08T01:55:32.772Z,0
2016-03-08T01:56:32.745Z,0
2016-03-08T01:57:32.716Z,0
2016-03-08T01:58:32.687Z,0
2016-03-08T01:59:32.675Z,0
2016-03-08T02:00:32.630Z,0
2016-03-08T02:01:32.602Z,0
2016-03-08T02:02:32.573Z,0
2016-03-08T02:03:32.529Z,0
2016-03-08T02:04:32.516Z,0
2016-03-08T02:05:32.457Z,0
2016-03-08T02:06:32.428Z,0
2016-03-08T02:07:32.415Z,0
2016-03-08T02:08:32.370Z,0
2016-03-08T02:09:32.343Z,0
2016-03-08T02:10:32.329Z,0
2016-03-08T02:11:32.269Z,0
2016-03-08T02:12:32.257Z,0
2016-03-08T02:13:32.243Z,0
2016-03-08T02:14:32.168Z,0
2016-03-08T02:15:32.156Z,0
2016-03-08T02:16:31.986Z,0
2016-03-08T02:17:31.926Z,0
2016-03-08T02:18:32.054Z,0
2016-03-08T02:19:32.056Z,0
2016-03-08T02:20:31.840Z,0
2016-03-08T02:21:31.952Z,0
2016-03-08T02:22:31.939Z,0
2016-03-08T02:23:31.911Z,0
2016-03-08T02:24:31.867Z,0
2016-03-08T02:25:31.838Z,0
2016-03-08T02:26:31.810Z,0
2016-03-08T02:27:31.781Z,0
2016-03-08T02:28:31.752Z,0
2016-03-08T02:29:31.724Z,0
2016-03-08T02:30:31.663Z,0
2016-03-08T02:31:31.652Z,0
2016-03-08T02:32:31.638Z,0
2016-03-08T02:33:31.610Z,0
2016-03-08T02:34:31.691Z,0
2016-03-08T02:35:31.787Z,0
2016-03-08T02:36:31.493Z,0
2016-03-08T02:37:31.465Z,0
2016-03-08T02:38:31.264Z,0
2016-03-08T02:39:31.391Z,0
2016-03-08T02:40:31.362Z,0
2016-03-08T02:41:31.319Z,0
2016-03-08T02:42:31.290Z,0
2016-03-08T02:43:31.262Z,0
2016-03-08T02:44:31.234Z,0
2016-03-08T02:45:31.189Z,0
2016-03-08T02:46:31.175Z,0
2016-03-08T02:47:31.148Z,0
2016-03-08T02:48:31.103Z,0
2016-03-08T02:49:31.075Z,0
2016-03-08T02:50:31.046Z,0
2016-03-08T02:51:31.017Z,0
2016-03-08T02:52:30.989Z,0
2016-03-08T02:53:30.961Z,0
2016-03-08T02:54:30.916Z,0
2016-03-08T02:55:30.888Z,0
2016-03-08T02:56:30.905Z,0
2016-03-08T02:57:30.815Z,0
2016-03-08T02:58:30.802Z,0
2016-03-08T02:59:30.757Z,0
2016-03-08T03:00:30.729Z,0
2016-03-08T03:01:30.716Z,0
2016-03-08T03:02:30.657Z,0
2016-03-08T03:03:30.675Z,0
2016-03-08T03:04:30.599Z,0
2016-03-08T03:05:30.571Z,0
2016-03-08T03:06:30.543Z,0
2016-03-08T03:07:30.514Z,0
2016-03-08T03:08:30.469Z,0
2016-03-08T03:09:30.440Z,0
2016-03-08T03:10:30.413Z,0
2016-03-08T03:11:30.384Z,0
2016-03-08T03:12:30.355Z,0
2016-03-08T03:13:30.312Z,0
2016-03-08T03:14:30.298Z,0
2016-03-08T03:15:30.253Z,0
2016-03-08T03:16:30.226Z,0
2016-03-08T03:17:30.181Z,0
2016-03-08T03:18:30.153Z,0
2016-03-08T03:19:30.123Z,0
2016-03-08T03:20:30.111Z,0
2016-03-08T03:21:30.067Z,0
2016-03-08T03:22:30.023Z,0
2016-03-08T03:23:29.995Z,0
2016-03-08T03:24:29.966Z,0
2016-03-08T03:25:29.936Z,0
2016-03-08T03:26:29.909Z,0
2016-03-08T03:27:29.864Z,0
2016-03-08T03:28:29.836Z,0
2016-03-08T03:29:29.807Z,0
2016-03-08T03:30:29.778Z,0
2016-03-08T03:31:29.735Z,0
2016-03-08T03:32:29.722Z,0
2016-03-08T03:33:29.694Z,0
2016-03-08T03:34:29.649Z,0
2016-03-08T03:35:29.620Z,0
2016-03-08T03:36:29.592Z,0
2016-03-08T03:37:29.547Z,0
2016-03-08T03:38:29.534Z,0
2016-03-08T03:39:29.490Z,0
2016-03-08T03:40:29.446Z,0
2016-03-08T03:41:29.432Z,0
2016-03-08T03:42:29.405Z,0
2016-03-08T03:43:29.360Z,0
2016-03-08T03:44:29.332Z,0
2016-03-08T03:45:29.303Z,0
2016-03-08T03:46:29.275Z,0
2016-03-08T03:47:29.246Z,0
2016-03-08T03:48:29.201Z,0
2016-03-08T03:49:29.173Z,0
2016-03-08T03:50:29.145Z,0
2016-03-08T03:51:29.116Z,0
2016-03-08T03:52:29.073Z,0
2016-03-08T03:53:29.044Z,0
2016-03-08T03:54:29.015Z,0
2016-03-08T03:55:28.971Z,0
2016-03-08T03:56:28.942Z,0
2016-03-08T03:57:28.914Z,0
2016-03-08T03:58:28.885Z,0
2016-03-08T03:59:28.856Z,0
2016-03-08T04:00:28.828Z,0
2016-03-08T04:01:28.783Z,0
2016-03-08T04:02:28.772Z,0
2016-03-08T04:03:28.727Z,0
2016-03-08T04:04:28.698Z,0
2016-03-08T04:05:28.654Z,0
2016-03-08T04:06:28.635Z,0
2016-03-08T04:07:28.623Z,0
2016-03-08T04:08:28.562Z,0
2016-03-08T04:09:28.534Z,0
2016-03-08T04:10:28.521Z,0
2016-03-08T04:11:28.492Z,0
2016-03-08T04:12:28.432Z,0
2016-03-08T04:13:28.404Z,0
2016-03-08T04:14:28.375Z,0
2016-03-08T04:15:28.348Z,0
2016-03-08T04:16:28.303Z,0
2016-03-08T04:17:28.275Z,0
2016-03-08T04:18:28.245Z,0
2016-03-08T04:19:28.233Z,0
2016-03-08T04:20:28.188Z,0
2016-03-08T04:21:28.160Z,0
2016-03-08T04:22:28.115Z,0
2016-03-08T04:23:28.086Z,0
2016-03-08T04:24:28.058Z,0
2016-03-08T04:25:28.030Z,0
2016-03-08T04:26:27.986Z,0
2016-03-08T04:27:28.019Z,0
2016-03-08T04:28:27.944Z,0
2016-03-08T04:29:27.900Z,0
2016-03-08T04:30:27.871Z,0
2016-03-08T04:31:27.827Z,0
2016-03-08T04:32:27.814Z,0
2016-03-08T04:33:27.771Z,0
2016-03-08T04:34:27.741Z,0
2016-03-08T04:35:27.698Z,0
2016-03-08T04:36:27.685Z,0
2016-03-08T04:37:27.640Z,0
2016-03-08T04:38:27.627Z,0
2016-03-08T04:39:27.568Z,0
2016-03-08T04:40:27.554Z,0
2016-03-08T04:41:27.526Z,0
2016-03-08T04:42:27.481Z,0
2016-03-08T04:43:27.470Z,0
2016-03-08T04:44:27.456Z,0
2016-03-08T04:45:27.381Z,0
2016-03-08T04:46:27.368Z,0
2016-03-08T04:47:27.355Z,0
2016-03-08T04:48:27.279Z,0
2016-03-08T04:49:27.251Z,0
2016-03-08T04:50:27.239Z,0
2016-03-08T04:51:27.194Z,0
2016-03-08T04:52:27.164Z,0
2016-03-08T04:53:27.136Z,0
2016-03-08T04:54:27.108Z,0
2016-03-08T04:55:27.063Z,0
2016-03-08T04:56:27.051Z,0
2016-03-08T04:57:26.991Z,0
2016-03-08T04:58:26.962Z,0
2016-03-08T04:59:26.949Z,0
2016-03-08T05:00:26.890Z,0
2016-03-08T05:01:26.861Z,0
2016-03-08T05:02:26.691Z,0
2016-03-08T05:03:26.835Z,0
2016-03-08T05:04:26.776Z,0
2016-03-08T05:05:26.746Z,0
2016-03-08T05:06:26.703Z,0
2016-03-08T05:07:26.674Z,0
2016-03-08T05:08:26.662Z,0
2016-03-08T05:09:26.601Z,0
2016-03-08T05:10:26.573Z,0
2016-03-08T05:11:26.545Z,0
2016-03-08T05:12:26.531Z,0
2016-03-08T05:13:26.487Z,0
2016-03-08T05:14:26.443Z,0
2016-03-08T05:15:26.414Z,0
2016-03-08T05:16:26.387Z,0
2016-03-08T05:17:26.342Z,0
2016-03-08T05:18:26.314Z,0
2016-03-08T05:19:26.284Z,0
2016-03-08T05:20:26.256Z,0
2016-03-08T05:21:26.227Z,0
2016-03-08T05:22:26.214Z,0
2016-03-08T05:23:26.154Z,0
2016-03-08T05:24:26.126Z,0
2016-03-08T05:25:26.097Z,0
2016-03-08T05:26:26.069Z,4
2016-03-08T05:27:26.025Z,4
2016-03-08T05:28:25.996Z,4
2016-03-08T05:29:25.968Z,0
2016-03-08T05:30:25.954Z,4
2016-03-08T05:31:25.911Z,4
2016-03-08T05:32:25.882Z,4
2016-03-08T05:33:25.837Z,8
2016-03-08T05:34:25.897Z,8
2016-03-08T05:35:25.827Z,8
2016-03-08T05:36:25.727Z,12
2016-03-08T05:37:25.804Z,12
2016-03-08T05:38:27.235Z,16
2016-03-08T05:39:25.659Z,20
2016-03-08T05:40:25.598Z,24
2016-03-08T05:41:25.617Z,24
2016-03-08T05:42:25.541Z,32
2016-03-08T05:43:25.498Z,36
2016-03-08T05:44:25.469Z,48
2016-03-08T05:45:25.472Z,52
2016-03-08T05:46:25.412Z,64
2016-03-08T05:47:25.383Z,72
2016-03-08T05:48:25.355Z,84
2016-03-08T05:49:25.396Z,96
2016-03-08T05:50:25.274Z,116
2016-03-08T05:51:25.244Z,132
2016-03-08T05:52:25.200Z,148
2016-03-08T05:53:25.172Z,172
2016-03-08T05:54:25.143Z,192
2016-03-08T05:55:25.115Z,216
2016-03-08T05:56:25.071Z,244
2016-03-08T05:57:25.057Z,276
2016-03-08T05:58:25.029Z,308
2016-03-08T05:59:24.985Z,340
2016-03-08T06:00:24.956Z,376
2016-03-08T06:01:24.928Z,412
2016-03-08T06:02:24.883Z,448
2016-03-08T06:03:24.855Z,488
2016-03-08T06:04:24.826Z,532
2016-03-08T06:05:24.782Z,580
2016-03-08T06:06:24.758Z,624
2016-03-08T06:07:24.715Z,672
2016-03-08T06:08:24.686Z,724
2016-03-08T06:09:24.657Z,776
2016-03-08T06:10:24.628Z,832
2016-03-08T06:11:24.616Z,896
2016-03-08T06:12:24.556Z,964
2016-03-08T06:13:24.543Z,1040
2016-03-08T06:14:24.499Z,1128
2016-03-08T06:15:24.470Z,1220
2016-03-08T06:16:24.457Z,1304
2016-03-08T06:17:24.414Z,1376
2016-03-08T06:18:24.369Z,1440
2016-03-08T06:19:24.341Z,1488
2016-03-08T06:20:24.312Z,1528
2016-03-08T06:21:24.268Z,1576
2016-03-08T06:22:24.239Z,1636
2016-03-08T06:23:24.226Z,1696
2016-03-08T06:24:24.182Z,1760
2016-03-08T06:25:24.138Z,1828
2016-03-08T06:26:24.125Z,1900
2016-03-08T06:27:24.096Z,1968
2016-03-08T06:28:24.068Z,2044
2016-03-08T06:29:24.023Z,2120
2016-03-08T06:30:23.995Z,2196
2016-03-08T06:31:23.950Z,2276
2016-03-08T06:32:23.923Z,2360
2016-03-08T06:33:23.893Z,2444
2016-03-08T06:34:23.865Z,2532
2016-03-08T06:35:23.836Z,2632
2016-03-08T06:36:23.808Z,2732
2016-03-08T06:37:23.764Z,2832
2016-03-08T06:38:23.735Z,2928
2016-03-08T06:39:23.723Z,3024
2016-03-08T06:40:23.662Z,3124
2016-03-08T06:41:23.649Z,3220
2016-03-08T06:42:23.621Z,3308
2016-03-08T06:43:23.577Z,3404
2016-03-08T06:44:23.548Z,3476
2016-03-08T06:45:23.535Z,3544
2016-03-08T06:46:23.491Z,3588
2016-03-08T06:47:23.447Z,3636
2016-03-08T06:48:23.418Z,3672
2016-03-08T06:49:23.406Z,3724
2016-03-08T06:50:23.346Z,3772
2016-03-08T06:51:23.317Z,3836
2016-03-08T06:52:23.304Z,3920
2016-03-08T06:53:23.307Z,4032
2016-03-08T06:54:23.232Z,4148
2016-03-08T06:55:23.234Z,4252
2016-03-08T06:56:23.330Z,4360
2016-03-08T06:57:23.130Z,4480
2016-03-08T06:58:23.118Z,4632
2016-03-08T06:59:23.073Z,4844
2016-03-08T07:00:23.045Z,5028
2016-03-08T07:01:23.032Z,5148
2016-03-08T07:02:22.971Z,5204
2016-03-08T07:03:22.989Z,5200
2016-03-08T07:04:22.962Z,5160
2016-03-08T07:05:22.948Z,5112
2016-03-08T07:06:22.888Z,5060
2016-03-08T07:07:22.844Z,5040
2016-03-08T07:08:22.800Z,5048
2016-03-08T07:09:22.803Z,5088
2016-03-08T07:10:22.728Z,5152
2016-03-08T07:11:22.715Z,5244
2016-03-08T07:12:22.795Z,5356
2016-03-08T07:13:22.641Z,5468
2016-03-08T07:14:22.613Z,5564
2016-03-08T07:15:22.600Z,5652
2016-03-08T07:16:22.556Z,5708
2016-03-08T07:17:22.543Z,5748
2016-03-08T07:18:22.499Z,5748
2016-03-08T07:19:22.502Z,5784
2016-03-08T07:20:22.441Z,5884
2016-03-08T07:21:22.414Z,6036
2016-03-08T07:22:22.400Z,6176
2016-03-08T07:23:22.403Z,6296
2016-03-08T07:24:22.312Z,6360
2016-03-08T07:25:22.283Z,6336
2016-03-08T07:26:22.255Z,6324
2016-03-08T07:27:22.242Z,6360
2016-03-08T07:28:22.213Z,6444
2016-03-08T07:29:22.154Z,6592
2016-03-08T07:30:22.140Z,6760
2016-03-08T07:31:22.128Z,6912
2016-03-08T07:32:22.068Z,7044
2016-03-08T07:33:22.040Z,7100
2016-03-08T07:34:22.026Z,7020
2016-03-08T07:35:21.967Z,6900
2016-03-08T07:36:21.954Z,6840
2016-03-08T07:37:21.925Z,6848
2016-03-08T07:38:21.880Z,7100
2016-03-08T07:39:21.852Z,7532
2016-03-08T07:40:21.823Z,8048
2016-03-08T07:41:21.811Z,8568
2016-03-08T07:42:21.751Z,9088
2016-03-08T07:43:21.739Z,9580
2016-03-08T07:44:21.709Z,9752
2016-03-08T07:45:21.665Z,9708
2016-03-08T07:46:21.653Z,9696
2016-03-08T07:47:21.608Z,9912
2016-03-08T07:48:21.580Z,10264
2016-03-08T07:49:21.566Z,10572
2016-03-08T07:50:21.522Z,10736
2016-03-08T07:51:21.494Z,11024
2016-03-08T07:52:21.449Z,10772
2016-03-08T07:53:21.438Z,9896
2016-03-08T07:54:21.393Z,9040
2016-03-08T07:55:21.396Z,8544
2016-03-08T07:56:21.335Z,8632
2016-03-08T07:57:21.323Z,9216
2016-03-08T07:58:21.294Z,10112
2016-03-08T07:59:21.279Z,10772
2016-03-08T08:00:21.235Z,10776
2016-03-08T08:01:21.191Z,10288
2016-03-08T08:02:21.193Z,9820
2016-03-08T08:03:21.149Z,9540
2016-03-08T08:04:21.137Z,9304
2016-03-08T08:05:21.076Z,8992
2016-03-08T08:06:21.048Z,8840
2016-03-08T08:07:21.020Z,8976
2016-03-08T08:08:21.007Z,9172
2016-03-08T08:09:20.978Z,9288
2016-03-08T08:10:20.949Z,9156
2016-03-08T08:11:20.937Z,8844
2016-03-08T08:12:20.892Z,8508
2016-03-08T08:13:20.847Z,8200
2016-03-08T08:14:20.820Z,8276
2016-03-08T08:15:20.791Z,8168
2016-03-08T08:16:20.762Z,8376
2016-03-08T08:17:20.750Z,8460
2016-03-08T08:18:20.705Z,8552
2016-03-08T08:19:20.692Z,8500
2016-03-08T08:20:20.663Z,8540
2016-03-08T08:21:20.620Z,8512
2016-03-08T08:22:20.606Z,8468
2016-03-08T08:23:20.562Z,8428
2016-03-08T08:24:20.533Z,8304
2016-03-08T08:25:20.505Z,8244
2016-03-08T08:26:20.477Z,8192
2016-03-08T08:27:20.449Z,8232
2016-03-08T08:28:20.419Z,8328
2016-03-08T08:29:20.391Z,8276
2016-03-08T08:30:20.363Z,8264
2016-03-08T08:31:20.334Z,8300
2016-03-08T08:32:20.321Z,8236
2016-03-08T08:33:20.293Z,8268
2016-03-08T08:34:20.248Z,8124
2016-03-08T08:35:20.220Z,8472
2016-03-08T08:36:20.191Z,8208
2016-03-08T08:37:20.162Z,7976
2016-03-08T08:38:20.134Z,8012
2016-03-08T08:39:20.106Z,7900
2016-03-08T08:40:20.062Z,7928
2016-03-08T08:41:20.049Z,7984
2016-03-08T08:42:20.020Z,8216
2016-03-08T08:43:20.007Z,7968
2016-03-08T08:44:19.962Z,8408
2016-03-08T08:45:19.918Z,8412
2016-03-08T08:46:19.952Z,8260
2016-03-08T08:47:19.861Z,8580
2016-03-08T08:48:19.848Z,8696
2016-03-08T08:49:19.819Z,8652
2016-03-08T08:50:19.775Z,8904
2016-03-08T08:51:19.778Z,9356
2016-03-08T08:52:19.734Z,9860
2016-03-08T08:53:19.689Z,10124
2016-03-08T08:54:19.739Z,9828
2016-03-08T08:55:19.633Z,10180
2016-03-08T08:56:19.620Z,10876
2016-03-08T08:57:19.591Z,11928
2016-03-08T08:58:19.563Z,11712
2016-03-08T08:59:19.550Z,10960
2016-03-08T09:00:19.505Z,10416
2016-03-08T09:01:19.477Z,10416
2016-03-08T09:02:19.433Z,11212
2016-03-08T09:03:19.529Z,13108
2016-03-08T09:04:19.391Z,13792
2016-03-08T09:05:19.346Z,15624
2016-03-08T09:06:19.335Z,17564
2016-03-08T09:07:19.321Z,19872
2016-03-08T09:08:19.277Z,20448
2016-03-08T09:09:19.249Z,18848
2016-03-08T09:10:19.220Z,17452
2016-03-08T09:11:19.192Z,16576
2016-03-08T09:12:19.179Z,19808
2016-03-08T09:13:19.134Z,21504
2016-03-08T09:14:19.113Z,20768
2016-03-08T09:15:19.069Z,19168
2016-03-08T09:16:19.072Z,19008
2016-03-08T09:17:19.089Z,15832
2016-03-08T09:18:19.013Z,17048
2016-03-08T09:19:18.970Z,17792
2016-03-08T09:20:18.957Z,19936
2016-03-08T09:21:18.928Z,20320
2016-03-08T09:22:18.916Z,20128
2016-03-08T09:23:18.871Z,20992
2016-03-08T09:24:18.890Z,19936
2016-03-08T09:25:18.814Z,21664
2016-03-08T09:26:18.802Z,21728
2016-03-08T09:27:18.788Z,20736
2016-03-08T09:28:18.744Z,18656
2016-03-08T09:29:18.716Z,15484
2016-03-08T09:30:18.687Z,15160
2016-03-08T09:31:18.659Z,16596
2016-03-08T09:32:18.629Z,18624
2016-03-08T09:33:18.617Z,17888
2016-03-08T09:34:18.587Z,17600
2016-03-08T09:35:18.560Z,18560
2016-03-08T09:36:18.547Z,18016
2016-03-08T09:37:18.502Z,17108
2016-03-08T09:38:18.473Z,16036
2016-03-08T09:39:18.445Z,14320
2016-03-08T09:40:18.433Z,15140
2016-03-08T09:41:18.404Z,14536
2016-03-08T09:42:18.375Z,14368
2016-03-08T09:43:18.362Z,14684
2016-03-08T09:44:18.333Z,14820
2016-03-08T09:45:18.322Z,15296
2016-03-08T09:46:18.277Z,16260
2016-03-08T09:47:18.247Z,16484
2016-03-08T09:48:18.236Z,16020
2016-03-08T09:49:18.191Z,18176
2016-03-08T09:50:18.163Z,18720
2016-03-08T09:51:18.150Z,18432
2016-03-08T09:52:18.105Z,20160
2016-03-08T09:53:18.108Z,21024
2016-03-08T09:54:18.063Z,19104
2016-03-08T09:55:18.035Z,19136
2016-03-08T09:56:18.022Z,19360
2016-03-08T09:57:17.978Z,19616
2016-03-08T09:58:17.996Z,18432
2016-03-08T09:59:18.718Z,18016
2016-03-08T10:00:18.471Z,16984
2016-03-08T10:01:19.207Z,18048
2016-03-08T10:02:18.679Z,20416
2016-03-08T10:03:17.931Z,19520
2016-03-08T10:04:18.326Z,20896
2016-03-08T10:05:19.468Z,20896
2016-03-08T10:06:17.815Z,18464
2016-03-08T10:07:18.522Z,17984
2016-03-08T10:08:17.790Z,19104
2016-03-08T10:09:17.762Z,19296
2016-03-08T10:10:18.077Z,19744
2016-03-08T10:11:17.923Z,19616
2016-03-08T10:12:17.895Z,22208
2016-03-08T10:13:18.023Z,23168
2016-03-08T10:14:17.884Z,23488
2016-03-08T10:15:19.059Z,24608
2016-03-08T10:16:19.039Z,25536
2016-03-08T10:17:17.518Z,21984
2016-03-08T10:18:17.588Z,17536
2016-03-08T10:19:17.503Z,14940
2016-03-08T10:20:17.714Z,13900
2016-03-08T10:21:17.382Z,13256
2016-03-08T10:22:17.492Z,13196
2016-03-08T10:23:17.272Z,14396
2016-03-08T10:24:17.301Z,14604
2016-03-08T10:25:17.207Z,14604
2016-03-08T10:26:17.349Z,15880
2016-03-08T10:27:17.209Z,18400
2016-03-08T10:28:17.243Z,18880
2016-03-08T10:29:17.166Z,18688
2016-03-08T10:30:17.777Z,18208
2016-03-08T10:31:17.169Z,19936
2016-03-08T10:32:17.468Z,21568
2016-03-08T10:33:18.548Z,21888
2016-03-08T10:34:17.144Z,22816
2016-03-08T10:35:16.991Z,21856
2016-03-08T10:36:16.930Z,20576
2016-03-08T10:37:17.121Z,19456
2016-03-08T10:38:18.420Z,18752
2016-03-08T10:39:16.906Z,18752
2016-03-08T10:40:17.018Z,19616
2016-03-08T10:41:16.864Z,20224
2016-03-08T10:42:16.961Z,20992
2016-03-08T10:43:17.041Z,21664
2016-03-08T10:44:16.732Z,21760
2016-03-08T10:45:17.407Z,20352
2016-03-08T10:46:16.705Z,18816
2016-03-08T10:47:16.756Z,18816
2016-03-08T10:48:16.743Z,18400
2016-03-08T10:49:16.604Z,19232
2016-03-08T10:50:16.624Z,18144
2016-03-08T10:51:16.657Z,17044
2016-03-08T10:52:17.518Z,15176
2016-03-08T10:53:16.804Z,13684
2016-03-08T10:54:16.665Z,11996
2016-03-08T10:55:17.012Z,11244
2016-03-08T10:56:18.421Z,11984
2016-03-08T10:57:18.579Z,12776
2016-03-08T10:58:18.362Z,13240
2016-03-08T10:59:16.773Z,13384
2016-03-08T11:00:16.478Z,14392
2016-03-08T11:01:16.433Z,16140
2016-03-08T11:02:16.421Z,17728
2016-03-08T11:03:16.251Z,18432
2016-03-08T11:04:16.676Z,19200
2016-03-08T11:05:16.257Z,21088
2016-03-08T11:06:16.322Z,24448
2016-03-08T11:07:16.466Z,24384
2016-03-08T11:08:16.390Z,24416
2016-03-08T11:09:16.736Z,25120
2016-03-08T11:10:16.099Z,25760
2016-03-08T11:11:16.258Z,25120
2016-03-08T11:12:16.041Z,24416
2016-03-08T11:13:16.014Z,22976
2016-03-08T11:14:16.016Z,22304
2016-03-08T11:15:15.955Z,21568
2016-03-08T11:16:16.037Z,20992
2016-03-08T11:17:15.914Z,20736
2016-03-08T11:18:16.135Z,20768
2016-03-08T11:19:16.185Z,21376
2016-03-08T11:20:15.954Z,21472
2016-03-08T11:21:15.957Z,21280
2016-03-08T11:22:15.865Z,21600
2016-03-08T11:23:15.790Z,22016
2016-03-08T11:24:15.729Z,22016
2016-03-08T11:25:16.014Z,22144
2016-03-08T11:26:16.267Z,22272
2016-03-08T11:27:15.675Z,22304
2016-03-08T11:28:15.710Z,22432
2016-03-08T11:29:15.634Z,21920
2016-03-08T11:30:15.668Z,20288
2016-03-08T11:31:15.577Z,20224
2016-03-08T11:32:15.626Z,20992
2016-03-08T11:33:15.551Z,21216
2016-03-08T11:34:15.710Z,23136
2016-03-08T11:35:15.509Z,24128
2016-03-08T11:36:15.528Z,24608
2016-03-08T11:37:16.014Z,25888
2016-03-08T11:38:15.393Z,26944
2016-03-08T11:39:15.692Z,28256
2016-03-08T11:40:15.397Z,28192
2016-03-08T11:41:15.933Z,27424
2016-03-08T11:42:15.325Z,27296
2016-03-08T11:43:15.327Z,27808
2016-03-08T11:44:15.316Z,28000
2016-03-08T11:45:15.865Z,26944
2016-03-08T11:46:16.367Z,26176
2016-03-08T11:47:16.277Z,25664
2016-03-08T11:48:16.483Z,25280
2016-03-08T11:49:15.375Z,23936
2016-03-08T11:50:15.206Z,22656
2016-03-08T11:51:15.115Z,22816
2016-03-08T11:52:16.383Z,23008
2016-03-08T11:53:16.917Z,23360
2016-03-08T11:54:16.967Z,24352
2016-03-08T11:55:16.454Z,25504
2016-03-08T11:56:16.644Z,26048
2016-03-08T11:57:15.443Z,24896
2016-03-08T11:58:15.821Z,23680
2016-03-08T11:59:15.199Z,22432
2016-03-08T12:00:14.889Z,22784
2016-03-08T12:01:15.705Z,26368
2016-03-08T12:02:14.957Z,28800
2016-03-08T12:03:16.334Z,28864
2016-03-08T12:04:15.088Z,31200
2016-03-08T12:05:15.606Z,31200
2016-03-08T12:06:14.844Z,31168
2016-03-08T12:07:14.816Z,30816
2016-03-08T12:08:15.147Z,30656
2016-03-08T12:09:15.041Z,29888
2016-03-08T12:10:14.980Z,30048
2016-03-08T12:11:15.390Z,25216
2016-03-08T12:12:15.736Z,20672
2016-03-08T12:13:14.723Z,21440
2016-03-08T12:14:14.741Z,22688
2016-03-08T12:15:14.963Z,19520
2016-03-08T12:16:16.107Z,17588
2016-03-08T12:17:14.531Z,16688
2016-03-08T12:18:14.534Z,18720
2016-03-08T12:19:14.662Z,22624
2016-03-08T12:20:15.492Z,23200
2016-03-08T12:21:14.775Z,20832
2016-03-08T12:22:15.466Z,19488
2016-03-08T12:23:14.718Z,17516
2016-03-08T12:24:14.940Z,16820
2016-03-08T12:25:14.615Z,17448
2016-03-08T12:26:14.570Z,18012
2016-03-08T12:27:15.011Z,17156
2016-03-08T12:28:14.966Z,15784
2016-03-08T12:29:15.501Z,16380
2016-03-08T12:30:15.222Z,18400
2016-03-08T12:31:16.037Z,21312
2016-03-08T12:32:15.103Z,21280
2016-03-08T12:33:14.589Z,18688
2016-03-08T12:34:14.155Z,18592
2016-03-08T12:35:15.032Z,19200
2016-03-08T12:36:14.878Z,20800
2016-03-08T12:37:15.194Z,21216
2016-03-08T12:38:15.696Z,19808
2016-03-08T12:39:15.684Z,19136
2016-03-08T12:40:15.499Z,20800
2016-03-08T12:41:15.860Z,21408
2016-03-08T12:42:14.926Z,19264
2016-03-08T12:43:14.491Z,19232
2016-03-08T12:44:14.854Z,19200
2016-03-08T12:45:15.918Z,20576
2016-03-08T12:46:15.985Z,21152
2016-03-08T12:47:14.940Z,22144
2016-03-08T12:48:14.707Z,23200
2016-03-08T12:49:14.289Z,22976
2016-03-08T12:50:16.260Z,23136
2016-03-08T12:51:14.153Z,23264
2016-03-08T12:52:14.437Z,22976
2016-03-08T12:53:14.362Z,22656
2016-03-08T12:54:14.256Z,21856
2016-03-08T12:55:13.883Z,20320
2016-03-08T12:56:15.276Z,18464
2016-03-08T12:57:15.389Z,16956
2016-03-08T12:58:14.062Z,17728
2016-03-08T12:59:14.565Z,16968
2016-03-08T13:00:13.537Z,16712
2016-03-08T13:01:13.837Z,14828
2016-03-08T13:02:13.777Z,13824
2016-03-08T13:03:13.811Z,13788
2016-03-08T13:04:13.923Z,14456
2016-03-08T13:05:13.425Z,15092
2016-03-08T13:06:13.848Z,14776
2016-03-08T13:07:13.601Z,14804
2016-03-08T13:08:14.949Z,14744
2016-03-08T13:09:14.232Z,14128
2016-03-08T13:10:13.812Z,14692
2016-03-08T13:11:13.565Z,15636
2016-03-08T13:12:13.881Z,15596
2016-03-08T13:13:13.618Z,15992
2016-03-08T13:14:13.526Z,16472
2016-03-08T13:15:14.170Z,16828
2016-03-08T13:16:14.470Z,17068
2016-03-08T13:17:14.145Z,18400
2016-03-08T13:18:13.381Z,19616
2016-03-08T13:19:14.384Z,21760
2016-03-08T13:20:13.964Z,22752
2016-03-08T13:21:13.873Z,22752
2016-03-08T13:22:13.720Z,23360
2016-03-08T13:23:13.411Z,23008
2016-03-08T13:24:13.803Z,22336
2016-03-08T13:25:13.009Z,22240
2016-03-08T13:26:12.934Z,21664
2016-03-08T13:27:12.921Z,20288
2016-03-08T13:28:12.908Z,18112
2016-03-08T13:29:12.864Z,18592
2016-03-08T13:30:13.319Z,20224
2016-03-08T13:31:13.104Z,19968
2016-03-08T13:32:12.810Z,20384
2016-03-08T13:33:13.110Z,20096
2016-03-08T13:34:12.752Z,19680
2016-03-08T13:35:12.723Z,19872
2016-03-08T13:36:12.711Z,20256
2016-03-08T13:37:12.682Z,19520
2016-03-08T13:38:12.669Z,19232
2016-03-08T13:39:12.782Z,19712
2016-03-08T13:40:12.690Z,20192
2016-03-08T13:41:12.677Z,19232
2016-03-08T13:42:12.820Z,19136
2016-03-08T13:43:12.637Z,19456